Time,TemperatureF,DewpointF,PressureIn,WindDirection,WindDirectionDegrees,WindSpeedMPH,WindSpeedGustMPH,Humidity,HourlyPrecipIn,Conditions,Clouds,dailyrainin,SoftwareType,DateUTC
2013-12-15 00:01:00,19.6,16.3,29.81,North,0,0.0,0.0,87,0.00,,,0.00,WUHU21623XXSP,2013-12-15 05:01:00,
2013-12-15 00:02:00,19.6,16.3,29.81,North,0,0.0,0.0,87,0.00,,,0.00,WUHU21623XXSP,2013-12-15 05:02:00,
2013-12-15 00:07:00,19.4,16.1,29.81,NNE,22,0.0,0.0,87,0.00,,,0.00,WUHU21623XXSP,2013-12-15 05:07:00,
2013-12-15 00:12:00,19.3,16.0,29.82,North,0,0.0,0.0,87,0.00,,,0.00,WUHU21623XXSP,2013-12-15 05:12:00,
2013-12-15 00:17:00,19.1,15.8,29.81,NNW,337,0.0,0.0,87,0.00,,,0.00,WUHU21623XXSP,2013-12-15 05:17:00,
2013-12-15 00:22:00,19.1,15.8,29.81,NNW,337,0.0,0.0,87,0.00,,,0.00,WUHU21623XXSP,2013-12-15 05:22:00,
2013-12-15 00:27:00,19.1,15.8,29.81,NNW,337,0.0,0.0,87,0.00,,,0.00,WUHU21623XXSP,2013-12-15 05:27:00,
2013-12-15 00:32:00,18.7,15.4,29.81,NNW,337,0.0,0.0,87,0.00,,,0.00,WUHU21623XXSP,2013-12-15 05:32:00,
2013-12-15 00:37:00,18.7,15.4,29.81,North,0,0.0,0.0,87,0.00,,,0.00,WUHU21623XXSP,2013-12-15 05:37:00,
2013-12-15 00:42:00,18.5,15.2,29.81,NNE,22,0.0,0.0,87,0.00,,,0.00,WUHU21623XXSP,2013-12-15 05:42:00,
2013-12-15 00:47:00,18.4,15.4,29.80,North,0,0.0,0.0,88,0.00,,,0.00,WUHU21623XXSP,2013-12-15 05:47:00,
2013-12-15 00:52:00,18.4,15.4,29.81,NNE,22,0.0,0.0,88,0.00,,,0.00,WUHU21623XXSP,2013-12-15 05:52:00,
2013-12-15 00:57:00,18.2,15.2,29.81,North,0,0.0,0.0,88,0.00,,,0.00,WUHU21623XXSP,2013-12-15 05:57:00,
2013-12-15 01:02:00,18.2,15.2,29.80,North,0,0.0,0.0,88,0.00,,,0.00,WUHU21623XXSP,2013-12-15 06:02:00,
2013-12-15 01:07:00,18.0,15.0,29.80,NNE,22,0.0,0.0,88,0.00,,,0.00,WUHU21623XXSP,2013-12-15 06:07:00,
2013-12-15 01:12:00,18.0,15.0,29.81,NNE,22,0.0,0.0,88,0.00,,,0.00,WUHU21623XXSP,2013-12-15 06:12:00,
2013-12-15 01:17:00,18.0,15.0,29.81,North,0,0.0,0.0,88,0.00,,,0.00,WUHU21623XXSP,2013-12-15 06:17:00,
2013-12-15 01:22:00,17.8,14.8,29.81,NW,315,0.0,0.0,88,0.00,,,0.00,WUHU21623XXSP,2013-12-15 06:22:00,
2013-12-15 01:27:00,17.8,14.8,29.81,NNW,337,0.0,0.0,88,0.00,,,0.00,WUHU21623XXSP,2013-12-15 06:27:00,
2013-12-15 01:32:00,17.6,14.6,29.81,NNW,337,0.0,0.0,88,0.00,,,0.00,WUHU21623XXSP,2013-12-15 06:32:00,
2013-12-15 01:37:00,17.6,14.6,29.82,NW,315,0.0,0.0,88,0.00,,,0.00,WUHU21623XXSP,2013-12-15 06:37:00,
2013-12-15 01:42:00,17.6,14.6,29.82,NNW,337,0.0,0.0,88,0.00,,,0.00,WUHU21623XXSP,2013-12-15 06:42:00,
2013-12-15 01:47:00,17.6,14.6,29.82,North,0,0.0,0.0,88,0.00,,,0.00,WUHU21623XXSP,2013-12-15 06:47:00,
2013-12-15 01:52:00,17.5,14.5,29.82,North,0,0.0,0.0,88,0.00,,,0.00,WUHU21623XXSP,2013-12-15 06:52:00,
2013-12-15 01:57:00,17.5,14.5,29.82,North,0,0.0,0.0,88,0.00,,,0.00,WUHU21623XXSP,2013-12-15 06:57:00,
2013-12-15 02:02:00,17.5,14.5,29.82,NW,315,0.0,0.0,88,0.00,,,0.00,WUHU21623XXSP,2013-12-15 07:02:00,
2013-12-15 02:07:00,17.3,14.3,29.82,North,0,0.0,0.0,88,0.00,,,0.00,WUHU21623XXSP,2013-12-15 07:07:00,
2013-12-15 02:12:00,17.3,14.3,29.82,North,0,0.0,0.0,88,0.00,,,0.00,WUHU21623XXSP,2013-12-15 07:12:00,
2013-12-15 02:17:00,17.3,14.3,29.82,North,0,0.0,0.0,88,0.00,,,0.00,WUHU21623XXSP,2013-12-15 07:17:00,
2013-12-15 02:22:00,17.5,14.5,29.82,WNW,292,0.0,0.0,88,0.00,,,0.00,WUHU21623XXSP,2013-12-15 07:22:00,
2013-12-15 02:27:00,17.5,14.5,29.83,WNW,292,0.0,0.0,88,0.00,,,0.00,WUHU21623XXSP,2013-12-15 07:27:00,
2013-12-15 02:32:00,17.5,14.5,29.82,NNW,337,0.0,0.0,88,0.00,,,0.00,WUHU21623XXSP,2013-12-15 07:32:00,
2013-12-15 02:37:00,17.5,14.5,29.82,NNW,337,0.0,0.0,88,0.00,,,0.00,WUHU21623XXSP,2013-12-15 07:37:00,
2013-12-15 02:42:00,17.5,14.5,29.83,NNW,337,0.0,0.0,88,0.00,,,0.00,WUHU21623XXSP,2013-12-15 07:42:00,
2013-12-15 02:47:00,17.6,14.6,29.83,NW,315,0.0,0.0,88,0.00,,,0.00,WUHU21623XXSP,2013-12-15 07:47:00,
2013-12-15 02:52:00,17.6,14.6,29.83,NW,315,0.0,0.0,88,0.00,,,0.00,WUHU21623XXSP,2013-12-15 07:52:00,
2013-12-15 02:57:00,17.6,14.6,29.82,NNE,22,0.0,0.0,88,0.00,,,0.00,WUHU21623XXSP,2013-12-15 07:57:00,
2013-12-15 03:02:00,17.6,14.6,29.83,NNE,22,0.0,0.0,88,0.00,,,0.00,WUHU21623XXSP,2013-12-15 08:02:00,
2013-12-15 03:07:00,17.8,14.8,29.83,NW,315,0.0,0.0,88,0.00,,,0.00,WUHU21623XXSP,2013-12-15 08:07:00,
2013-12-15 03:12:00,17.8,15.1,29.83,WNW,292,0.0,0.0,89,0.00,,,0.00,WUHU21623XXSP,2013-12-15 08:12:00,
2013-12-15 03:17:00,17.8,15.1,29.83,West,270,0.0,0.0,89,0.00,,,0.00,WUHU21623XXSP,2013-12-15 08:17:00,
2013-12-15 03:22:00,17.8,15.1,29.83,North,0,0.0,0.0,89,0.00,,,0.00,WUHU21623XXSP,2013-12-15 08:22:00,
2013-12-15 03:27:00,17.8,15.1,29.83,WNW,292,0.0,0.0,89,0.00,,,0.00,WUHU21623XXSP,2013-12-15 08:27:00,
2013-12-15 03:32:00,17.8,15.1,29.84,NW,315,0.0,0.0,89,0.00,,,0.00,WUHU21623XXSP,2013-12-15 08:32:00,
2013-12-15 03:37:00,17.8,15.1,29.83,NW,315,0.0,0.0,89,0.00,,,0.00,WUHU21623XXSP,2013-12-15 08:37:00,
2013-12-15 03:42:00,18.0,15.3,29.84,WNW,292,0.0,0.0,89,0.00,,,0.00,WUHU21623XXSP,2013-12-15 08:42:00,
2013-12-15 03:47:00,18.0,15.3,29.83,WNW,292,0.0,0.0,89,0.00,,,0.00,WUHU21623XXSP,2013-12-15 08:47:00,
2013-12-15 03:52:00,18.0,15.3,29.83,WNW,292,0.0,0.0,89,0.00,,,0.00,WUHU21623XXSP,2013-12-15 08:52:00,
2013-12-15 03:57:00,18.0,15.3,29.83,North,0,0.0,0.0,89,0.00,,,0.00,WUHU21623XXSP,2013-12-15 08:57:00,
2013-12-15 04:02:00,18.0,15.3,29.83,North,0,0.0,0.0,89,0.00,,,0.00,WUHU21623XXSP,2013-12-15 09:02:00,
2013-12-15 04:07:00,18.0,15.3,29.83,NNW,337,0.0,0.0,89,0.00,,,0.00,WUHU21623XXSP,2013-12-15 09:07:00,
2013-12-15 04:12:00,18.2,15.5,29.83,NNW,337,0.0,0.0,89,0.00,,,0.00,WUHU21623XXSP,2013-12-15 09:12:00,
2013-12-15 04:17:00,18.2,15.5,29.82,NNW,337,0.0,0.0,89,0.00,,,0.00,WUHU21623XXSP,2013-12-15 09:17:00,
2013-12-15 04:22:00,18.0,15.3,29.83,NNW,337,0.0,0.0,89,0.00,,,0.00,WUHU21623XXSP,2013-12-15 09:22:00,
2013-12-15 04:27:00,18.2,15.5,29.83,North,0,0.0,0.0,89,0.00,,,0.00,WUHU21623XXSP,2013-12-15 09:27:00,
2013-12-15 04:32:00,18.2,15.5,29.83,North,0,0.0,0.0,89,0.00,,,0.00,WUHU21623XXSP,2013-12-15 09:32:00,
2013-12-15 04:37:00,18.2,15.5,29.84,WNW,292,0.0,0.0,89,0.00,,,0.00,WUHU21623XXSP,2013-12-15 09:37:00,
2013-12-15 04:42:00,18.4,15.7,29.83,North,0,0.0,0.0,89,0.00,,,0.00,WUHU21623XXSP,2013-12-15 09:42:00,
2013-12-15 04:47:00,18.4,15.7,29.84,North,0,0.0,0.0,89,0.00,,,0.00,WUHU21623XXSP,2013-12-15 09:47:00,
2013-12-15 04:52:00,18.4,15.7,29.83,NW,315,0.0,0.0,89,0.00,,,0.00,WUHU21623XXSP,2013-12-15 09:52:00,
2013-12-15 04:57:00,18.5,15.8,29.84,WNW,292,0.0,0.0,89,0.00,,,0.00,WUHU21623XXSP,2013-12-15 09:57:00,
2013-12-15 05:02:00,18.5,15.8,29.84,WNW,292,0.0,0.0,89,0.00,,,0.00,WUHU21623XXSP,2013-12-15 10:02:00,
2013-12-15 05:07:00,18.5,15.8,29.84,NNW,337,0.0,0.0,89,0.00,,,0.00,WUHU21623XXSP,2013-12-15 10:07:00,
2013-12-15 05:12:00,18.5,15.8,29.84,WNW,292,0.0,0.0,89,0.00,,,0.00,WUHU21623XXSP,2013-12-15 10:12:00,
2013-12-15 05:17:00,18.5,15.8,29.84,NNW,337,0.0,0.0,89,0.00,,,0.00,WUHU21623XXSP,2013-12-15 10:17:00,
2013-12-15 05:22:00,18.5,15.8,29.84,NNW,337,0.0,0.0,89,0.00,,,0.00,WUHU21623XXSP,2013-12-15 10:22:00,
2013-12-15 05:27:00,18.7,16.0,29.84,NNW,337,0.0,0.0,89,0.00,,,0.00,WUHU21623XXSP,2013-12-15 10:27:00,
2013-12-15 05:32:00,18.7,16.0,29.84,WNW,292,0.0,0.0,89,0.00,,,0.00,WUHU21623XXSP,2013-12-15 10:32:00,
2013-12-15 05:37:00,18.7,16.0,29.84,WNW,292,0.0,0.0,89,0.00,,,0.00,WUHU21623XXSP,2013-12-15 10:37:00,
2013-12-15 05:42:00,18.7,16.0,29.84,WNW,292,0.0,0.0,89,0.00,,,0.00,WUHU21623XXSP,2013-12-15 10:42:00,
2013-12-15 05:47:00,18.7,16.0,29.84,WNW,292,0.0,0.0,89,0.00,,,0.00,WUHU21623XXSP,2013-12-15 10:47:00,
2013-12-15 05:52:00,18.7,16.0,29.84,WNW,292,0.0,0.0,89,0.00,,,0.00,WUHU21623XXSP,2013-12-15 10:52:00,
2013-12-15 05:57:00,18.7,16.0,29.84,WNW,292,0.0,0.0,89,0.00,,,0.00,WUHU21623XXSP,2013-12-15 10:57:00,
2013-12-15 06:02:00,18.7,16.0,29.83,WNW,292,0.0,0.0,89,0.00,,,0.00,WUHU21623XXSP,2013-12-15 11:02:00,
2013-12-15 06:07:00,18.9,16.1,29.83,WNW,292,0.0,0.0,89,0.00,,,0.00,WUHU21623XXSP,2013-12-15 11:07:00,
2013-12-15 06:12:00,18.9,16.1,29.83,WNW,292,0.0,0.0,89,0.00,,,0.00,WUHU21623XXSP,2013-12-15 11:12:00,
2013-12-15 06:17:00,19.1,16.3,29.82,WNW,292,0.0,0.0,89,0.00,,,0.00,WUHU21623XXSP,2013-12-15 11:17:00,
2013-12-15 06:22:00,19.1,16.3,29.82,WNW,292,0.0,0.0,89,0.00,,,0.00,WUHU21623XXSP,2013-12-15 11:22:00,
2013-12-15 06:27:00,19.1,16.3,29.83,WNW,292,0.0,0.0,89,0.00,,,0.00,WUHU21623XXSP,2013-12-15 11:27:00,
2013-12-15 06:32:00,19.1,16.3,29.83,WNW,292,0.0,0.0,89,0.00,,,0.00,WUHU21623XXSP,2013-12-15 11:32:00,
2013-12-15 06:37:00,19.1,16.3,29.82,WNW,292,0.0,0.0,89,0.00,,,0.00,WUHU21623XXSP,2013-12-15 11:37:00,
2013-12-15 06:42:00,19.1,16.3,29.82,WNW,292,0.0,0.0,89,0.00,,,0.00,WUHU21623XXSP,2013-12-15 11:42:00,
2013-12-15 06:47:00,19.1,16.3,29.82,WNW,292,0.0,0.0,89,0.00,,,0.00,WUHU21623XXSP,2013-12-15 11:47:00,
2013-12-15 06:52:00,19.1,16.3,29.82,WNW,292,0.0,0.0,89,0.00,,,0.00,WUHU21623XXSP,2013-12-15 11:52:00,
2013-12-15 06:57:00,19.1,16.3,29.82,SW,225,0.0,0.0,89,0.00,,,0.00,WUHU21623XXSP,2013-12-15 11:57:00,
2013-12-15 07:02:00,19.3,16.5,29.82,SW,225,0.0,0.0,89,0.00,,,0.00,WUHU21623XXSP,2013-12-15 12:02:00,
2013-12-15 07:07:00,19.3,16.5,29.82,SW,225,0.0,0.0,89,0.00,,,0.00,WUHU21623XXSP,2013-12-15 12:07:00,
2013-12-15 07:12:00,19.3,16.5,29.82,SW,225,0.0,0.0,89,0.00,,,0.00,WUHU21623XXSP,2013-12-15 12:12:00,
2013-12-15 07:17:00,19.1,16.3,29.82,South,180,0.0,0.0,89,0.00,,,0.00,WUHU21623XXSP,2013-12-15 12:17:00,
2013-12-15 07:22:00,19.1,16.3,29.82,South,180,0.0,0.0,89,0.00,,,0.00,WUHU21623XXSP,2013-12-15 12:22:00,
2013-12-15 07:27:00,19.1,16.3,29.82,SSW,202,0.0,0.0,89,0.00,,,0.00,WUHU21623XXSP,2013-12-15 12:27:00,
2013-12-15 07:32:00,19.1,16.3,29.82,SSW,202,0.0,0.0,89,0.00,,,0.00,WUHU21623XXSP,2013-12-15 12:32:00,
2013-12-15 07:37:00,19.1,16.3,29.82,SW,225,0.0,0.0,89,0.00,,,0.00,WUHU21623XXSP,2013-12-15 12:37:00,
2013-12-15 07:42:00,19.1,16.3,29.82,SW,225,0.0,0.0,89,0.00,,,0.00,WUHU21623XXSP,2013-12-15 12:42:00,
2013-12-15 07:47:00,19.3,16.5,29.82,SW,225,0.0,0.0,89,0.00,,,0.00,WUHU21623XXSP,2013-12-15 12:47:00,
2013-12-15 07:52:00,19.3,16.5,29.82,SW,225,0.0,0.0,89,0.00,,,0.00,WUHU21623XXSP,2013-12-15 12:52:00,
2013-12-15 07:57:00,19.4,16.6,29.82,SW,225,0.0,0.0,89,0.00,,,0.00,WUHU21623XXSP,2013-12-15 12:57:00,
2013-12-15 08:02:00,19.4,16.6,29.82,SSW,202,0.0,0.0,89,0.00,,,0.00,WUHU21623XXSP,2013-12-15 13:02:00,
2013-12-15 08:07:00,19.4,16.6,29.81,SW,225,0.0,0.0,89,0.00,,,0.00,WUHU21623XXSP,2013-12-15 13:07:00,
2013-12-15 08:12:00,19.4,16.6,29.81,SW,225,0.0,0.0,89,0.00,,,0.00,WUHU21623XXSP,2013-12-15 13:12:00,
2013-12-15 08:17:00,19.4,16.6,29.81,SW,225,0.0,0.0,89,0.00,,,0.00,WUHU21623XXSP,2013-12-15 13:17:00,
2013-12-15 08:22:00,19.4,16.6,29.81,SW,225,0.0,0.0,89,0.00,,,0.00,WUHU21623XXSP,2013-12-15 13:22:00,
2013-12-15 08:27:00,19.6,16.8,29.81,SW,225,0.0,0.0,89,0.00,,,0.00,WUHU21623XXSP,2013-12-15 13:27:00,
2013-12-15 08:32:00,19.6,16.8,29.81,SW,225,0.0,0.0,89,0.00,,,0.00,WUHU21623XXSP,2013-12-15 13:32:00,
2013-12-15 08:37:00,19.8,17.0,29.82,WSW,247,0.0,0.0,89,0.00,,,0.00,WUHU21623XXSP,2013-12-15 13:37:00,
2013-12-15 08:42:00,19.8,17.0,29.82,WSW,247,0.0,0.0,89,0.00,,,0.00,WUHU21623XXSP,2013-12-15 13:42:00,
2013-12-15 08:47:00,20.0,17.2,29.82,SW,225,0.0,0.0,89,0.00,,,0.00,WUHU21623XXSP,2013-12-15 13:47:00,
2013-12-15 08:52:00,20.0,17.2,29.82,SW,225,0.0,0.0,89,0.00,,,0.00,WUHU21623XXSP,2013-12-15 13:52:00,
2013-12-15 08:57:00,20.0,17.2,29.82,South,180,0.0,0.0,89,0.00,,,0.00,WUHU21623XXSP,2013-12-15 13:57:00,
2013-12-15 09:02:00,20.0,17.0,29.81,SW,225,0.0,0.0,88,0.00,,,0.00,WUHU21623XXSP,2013-12-15 14:02:00,
2013-12-15 09:07:00,20.3,17.5,29.82,SW,225,0.0,0.0,89,0.00,,,0.00,WUHU21623XXSP,2013-12-15 14:07:00,
2013-12-15 09:12:00,20.3,17.5,29.82,WSW,247,0.0,0.0,89,0.00,,,0.00,WUHU21623XXSP,2013-12-15 14:12:00,
2013-12-15 09:17:00,20.3,17.5,29.82,WSW,247,0.0,0.0,89,0.00,,,0.00,WUHU21623XXSP,2013-12-15 14:17:00,
2013-12-15 09:22:00,20.5,17.7,29.82,SSW,202,0.0,0.0,89,0.00,,,0.00,WUHU21623XXSP,2013-12-15 14:22:00,
2013-12-15 09:27:00,20.5,17.7,29.82,WSW,247,0.0,0.0,89,0.00,,,0.00,WUHU21623XXSP,2013-12-15 14:27:00,
2013-12-15 09:32:00,20.9,18.1,29.82,SW,225,0.0,0.0,89,0.00,,,0.00,WUHU21623XXSP,2013-12-15 14:32:00,
2013-12-15 09:37:00,20.9,18.1,29.81,SW,225,0.0,0.0,89,0.00,,,0.00,WUHU21623XXSP,2013-12-15 14:37:00,
2013-12-15 09:42:00,21.1,18.3,29.81,West,270,0.0,0.0,89,0.00,,,0.00,WUHU21623XXSP,2013-12-15 14:42:00,
2013-12-15 09:47:00,21.1,18.3,29.81,SW,225,0.0,0.0,89,0.00,,,0.00,WUHU21623XXSP,2013-12-15 14:47:00,
2013-12-15 09:52:00,21.2,18.4,29.81,West,270,0.0,0.0,89,0.00,,,0.00,WUHU21623XXSP,2013-12-15 14:52:00,
2013-12-15 09:57:00,21.4,18.6,29.80,SSW,202,0.0,0.0,89,0.00,,,0.00,WUHU21623XXSP,2013-12-15 14:57:00,
2013-12-15 10:02:00,21.6,18.8,29.80,SSW,202,0.0,0.0,89,0.00,,,0.00,WUHU21623XXSP,2013-12-15 15:02:00,
2013-12-15 10:07:00,21.8,19.0,29.80,WSW,247,0.0,0.0,89,0.00,,,0.00,WUHU21623XXSP,2013-12-15 15:07:00,
2013-12-15 10:12:00,22.1,19.3,29.80,West,270,0.0,0.0,89,0.00,,,0.00,WUHU21623XXSP,2013-12-15 15:12:00,
2013-12-15 10:17:00,22.3,19.5,29.80,WSW,247,0.0,0.0,89,0.00,,,0.00,WUHU21623XXSP,2013-12-15 15:17:00,
2013-12-15 10:22:00,22.7,19.9,29.80,WSW,247,0.0,0.0,89,0.00,,,0.00,WUHU21623XXSP,2013-12-15 15:22:00,
2013-12-15 10:27:00,22.9,20.1,29.80,SSW,202,0.0,0.0,89,0.00,,,0.00,WUHU21623XXSP,2013-12-15 15:27:00,
2013-12-15 10:32:00,23.0,20.2,29.80,WSW,247,0.0,0.0,89,0.00,,,0.00,WUHU21623XXSP,2013-12-15 15:32:00,
2013-12-15 10:37:00,23.0,20.2,29.80,SW,225,0.0,0.0,89,0.00,,,0.00,WUHU21623XXSP,2013-12-15 15:37:00,
2013-12-15 10:42:00,23.2,20.4,29.80,West,270,0.0,0.0,89,0.00,,,0.00,WUHU21623XXSP,2013-12-15 15:42:00,
2013-12-15 10:47:00,23.2,20.4,29.80,SSW,202,0.0,0.0,89,0.00,,,0.00,WUHU21623XXSP,2013-12-15 15:47:00,
2013-12-15 10:52:00,23.4,20.6,29.80,WSW,247,0.0,0.0,89,0.00,,,0.00,WUHU21623XXSP,2013-12-15 15:52:00,
2013-12-15 10:57:00,23.4,20.6,29.79,WSW,247,0.0,0.0,89,0.00,,,0.00,WUHU21623XXSP,2013-12-15 15:57:00,
2013-12-15 11:02:00,23.6,20.8,29.80,SW,225,0.0,0.0,89,0.00,,,0.00,WUHU21623XXSP,2013-12-15 16:02:00,
2013-12-15 11:07:00,23.6,20.8,29.79,SW,225,0.0,0.0,89,0.00,,,0.00,WUHU21623XXSP,2013-12-15 16:07:00,
2013-12-15 11:12:00,23.9,21.1,29.79,WSW,247,0.0,0.0,89,0.00,,,0.00,WUHU21623XXSP,2013-12-15 16:12:00,
2013-12-15 11:17:00,23.9,21.1,29.79,SW,225,0.0,0.0,89,0.00,,,0.00,WUHU21623XXSP,2013-12-15 16:17:00,
2013-12-15 11:22:00,24.1,21.3,29.79,WSW,247,0.0,0.0,89,0.00,,,0.00,WUHU21623XXSP,2013-12-15 16:22:00,
2013-12-15 11:27:00,24.1,21.3,29.79,WNW,292,0.0,0.0,89,0.00,,,0.00,WUHU21623XXSP,2013-12-15 16:27:00,
2013-12-15 11:32:00,24.1,21.3,29.79,WNW,292,0.0,0.0,89,0.00,,,0.00,WUHU21623XXSP,2013-12-15 16:32:00,
2013-12-15 11:37:00,24.1,21.3,29.79,WNW,292,0.0,0.0,89,0.00,,,0.00,WUHU21623XXSP,2013-12-15 16:37:00,
2013-12-15 11:42:00,23.9,21.1,29.79,North,0,0.0,0.0,89,0.00,,,0.00,WUHU21623XXSP,2013-12-15 16:42:00,
2013-12-15 11:47:00,23.6,20.8,29.79,NNW,337,0.0,0.0,89,0.00,,,0.00,WUHU21623XXSP,2013-12-15 16:47:00,
2013-12-15 11:52:00,23.6,20.8,29.79,WNW,292,0.0,0.0,89,0.00,,,0.00,WUHU21623XXSP,2013-12-15 16:52:00,
2013-12-15 11:57:00,23.6,20.8,29.79,North,0,0.0,0.0,89,0.00,,,0.00,WUHU21623XXSP,2013-12-15 16:57:00,
2013-12-15 12:02:00,22.9,20.1,29.79,WSW,247,0.0,0.0,89,0.00,,,0.00,WUHU21623XXSP,2013-12-15 17:02:00,
2013-12-15 12:07:00,22.7,19.9,29.79,NNW,337,0.0,0.0,89,0.00,,,0.00,WUHU21623XXSP,2013-12-15 17:07:00,
2013-12-15 12:12:00,22.7,19.9,29.79,NNW,337,0.0,0.0,89,0.00,,,0.00,WUHU21623XXSP,2013-12-15 17:12:00,
2013-12-15 12:17:00,22.5,19.4,29.79,NNW,337,0.0,0.0,88,0.00,,,0.00,WUHU21623XXSP,2013-12-15 17:17:00,
2013-12-15 12:22:00,22.3,19.2,29.79,NW,315,0.0,0.0,88,0.00,,,0.00,WUHU21623XXSP,2013-12-15 17:22:00,
2013-12-15 12:27:00,22.0,18.9,29.79,NW,315,0.0,0.0,88,0.00,,,0.00,WUHU21623XXSP,2013-12-15 17:27:00,
2013-12-15 12:32:00,21.8,18.5,29.79,NW,315,0.0,0.0,87,0.00,,,0.00,WUHU21623XXSP,2013-12-15 17:32:00,
2013-12-15 12:37:00,21.8,18.5,29.79,North,0,0.0,0.0,87,0.00,,,0.00,WUHU21623XXSP,2013-12-15 17:37:00,
2013-12-15 12:42:00,21.8,18.2,29.79,NW,315,0.0,0.0,86,0.00,,,0.00,WUHU21623XXSP,2013-12-15 17:42:00,
2013-12-15 12:47:00,21.6,18.0,29.79,NW,315,0.0,0.0,86,0.00,,,0.00,WUHU21623XXSP,2013-12-15 17:47:00,
2013-12-15 12:52:00,21.6,17.8,29.79,North,0,0.0,0.0,85,0.00,,,0.00,WUHU21623XXSP,2013-12-15 17:52:00,
2013-12-15 12:57:00,21.6,17.8,29.79,NW,315,0.0,0.0,85,0.00,,,0.00,WUHU21623XXSP,2013-12-15 17:57:00,
2013-12-15 13:02:00,21.4,17.3,29.79,NNW,337,0.0,0.0,84,0.00,,,0.00,WUHU21623XXSP,2013-12-15 18:02:00,
2013-12-15 13:07:00,21.4,17.3,29.79,NNE,22,0.0,0.0,84,0.00,,,0.00,WUHU21623XXSP,2013-12-15 18:07:00,
2013-12-15 13:12:00,21.4,17.3,29.79,NW,315,0.0,0.0,84,0.00,,,0.00,WUHU21623XXSP,2013-12-15 18:12:00,
2013-12-15 13:17:00,21.4,17.0,29.79,NNW,337,0.0,0.0,83,0.00,,,0.00,WUHU21623XXSP,2013-12-15 18:17:00,
2013-12-15 13:22:00,21.4,17.0,29.79,NW,315,0.0,0.0,83,0.00,,,0.00,WUHU21623XXSP,2013-12-15 18:22:00,
2013-12-15 13:27:00,21.4,16.7,29.79,NNE,22,0.0,0.0,82,0.00,,,0.00,WUHU21623XXSP,2013-12-15 18:27:00,
2013-12-15 13:32:00,21.4,16.7,29.79,West,270,0.0,0.0,82,0.00,,,0.00,WUHU21623XXSP,2013-12-15 18:32:00,
2013-12-15 13:37:00,21.4,16.7,29.79,WNW,292,0.0,0.0,82,0.00,,,0.00,WUHU21623XXSP,2013-12-15 18:37:00,
2013-12-15 13:42:00,21.4,16.5,29.79,West,270,0.0,0.0,81,0.00,,,0.00,WUHU21623XXSP,2013-12-15 18:42:00,
2013-12-15 13:47:00,21.2,16.3,29.79,WNW,292,0.0,0.0,81,0.00,,,0.00,WUHU21623XXSP,2013-12-15 18:47:00,
2013-12-15 13:52:00,21.4,16.5,29.78,West,270,0.0,0.0,81,0.00,,,0.00,WUHU21623XXSP,2013-12-15 18:52:00,
2013-12-15 13:57:00,21.6,16.4,29.79,South,180,0.0,0.0,80,0.00,,,0.00,WUHU21623XXSP,2013-12-15 18:57:00,
2013-12-15 14:02:00,21.4,16.2,29.79,West,270,0.0,0.0,80,0.00,,,0.00,WUHU21623XXSP,2013-12-15 19:02:00,
2013-12-15 14:07:00,21.4,16.2,29.79,NNW,337,0.0,0.0,80,0.00,,,0.00,WUHU21623XXSP,2013-12-15 19:07:00,
2013-12-15 14:12:00,21.2,16.0,29.79,NW,315,0.0,0.0,80,0.00,,,0.00,WUHU21623XXSP,2013-12-15 19:12:00,
2013-12-15 14:17:00,21.2,16.0,29.79,NNW,337,0.0,0.0,80,0.00,,,0.00,WUHU21623XXSP,2013-12-15 19:17:00,
2013-12-15 14:22:00,21.2,16.0,29.80,NNW,337,0.0,0.0,80,0.00,,,0.00,WUHU21623XXSP,2013-12-15 19:22:00,
2013-12-15 14:27:00,20.9,15.7,29.80,SE,135,0.0,0.0,80,0.00,,,0.00,WUHU21623XXSP,2013-12-15 19:27:00,
2013-12-15 14:32:00,20.9,15.7,29.80,WNW,292,0.0,0.0,80,0.00,,,0.00,WUHU21623XXSP,2013-12-15 19:32:00,
2013-12-15 14:37:00,20.9,15.7,29.81,WNW,292,0.0,0.0,80,0.00,,,0.00,WUHU21623XXSP,2013-12-15 19:37:00,
2013-12-15 14:42:00,20.5,15.3,29.81,NNW,337,0.0,0.0,80,0.00,,,0.00,WUHU21623XXSP,2013-12-15 19:42:00,
2013-12-15 14:47:00,20.5,15.3,29.80,West,270,0.0,0.0,80,0.00,,,0.00,WUHU21623XXSP,2013-12-15 19:47:00,
2013-12-15 14:52:00,20.3,14.8,29.80,NNW,337,0.0,0.0,79,0.00,,,0.00,WUHU21623XXSP,2013-12-15 19:52:00,
2013-12-15 14:57:00,20.3,14.8,29.81,NNW,337,0.0,0.0,79,0.00,,,0.00,WUHU21623XXSP,2013-12-15 19:57:00,
2013-12-15 15:02:00,20.0,14.5,29.82,WNW,292,0.0,0.0,79,0.00,,,0.00,WUHU21623XXSP,2013-12-15 20:02:00,
2013-12-15 15:07:00,19.8,14.3,29.82,North,0,0.0,0.0,79,0.00,,,0.00,WUHU21623XXSP,2013-12-15 20:07:00,
2013-12-15 15:12:00,19.8,14.3,29.82,NNW,337,0.0,0.0,79,0.00,,,0.00,WUHU21623XXSP,2013-12-15 20:12:00,
2013-12-15 15:17:00,19.8,14.3,29.82,North,0,0.0,0.0,79,0.00,,,0.00,WUHU21623XXSP,2013-12-15 20:17:00,
2013-12-15 15:22:00,19.6,14.2,29.82,NNW,337,0.0,0.0,79,0.00,,,0.00,WUHU21623XXSP,2013-12-15 20:22:00,
2013-12-15 15:27:00,19.4,14.0,29.82,NNW,337,0.0,0.0,79,0.00,,,0.00,WUHU21623XXSP,2013-12-15 20:27:00,
2013-12-15 15:32:00,19.4,14.0,29.82,NW,315,0.0,0.0,79,0.00,,,0.00,WUHU21623XXSP,2013-12-15 20:32:00,
2013-12-15 15:37:00,19.4,13.7,29.83,NW,315,0.0,0.0,78,0.00,,,0.00,WUHU21623XXSP,2013-12-15 20:37:00,
2013-12-15 15:42:00,19.3,13.6,29.83,NW,315,0.0,0.0,78,0.00,,,0.00,WUHU21623XXSP,2013-12-15 20:42:00,
2013-12-15 15:47:00,19.1,13.4,29.83,NW,315,0.0,0.0,78,0.00,,,0.00,WUHU21623XXSP,2013-12-15 20:47:00,
2013-12-15 15:52:00,19.1,13.4,29.84,WNW,292,0.0,0.0,78,0.00,,,0.00,WUHU21623XXSP,2013-12-15 20:52:00,
2013-12-15 15:57:00,19.1,13.4,29.84,NNE,22,0.0,0.0,78,0.00,,,0.00,WUHU21623XXSP,2013-12-15 20:57:00,
2013-12-15 16:02:00,19.1,13.4,29.84,North,0,0.0,0.0,78,0.00,,,0.00,WUHU21623XXSP,2013-12-15 21:02:00,
2013-12-15 16:07:00,18.7,13.0,29.84,WNW,292,0.0,0.0,78,0.00,,,0.00,WUHU21623XXSP,2013-12-15 21:07:00,
2013-12-15 16:12:00,18.7,13.0,29.84,WNW,292,0.0,0.0,78,0.00,,,0.00,WUHU21623XXSP,2013-12-15 21:12:00,
2013-12-15 16:17:00,18.5,13.1,29.85,West,270,0.0,0.0,79,0.00,,,0.00,WUHU21623XXSP,2013-12-15 21:17:00,
2013-12-15 16:22:00,18.5,13.1,29.85,North,0,0.0,0.0,79,0.00,,,0.00,WUHU21623XXSP,2013-12-15 21:22:00,
2013-12-15 16:27:00,18.4,13.0,29.85,WNW,292,0.0,0.0,79,0.00,,,0.00,WUHU21623XXSP,2013-12-15 21:27:00,
2013-12-15 16:32:00,18.2,13.1,29.85,WNW,292,0.0,0.0,80,0.00,,,0.00,WUHU21623XXSP,2013-12-15 21:32:00,
2013-12-15 16:37:00,18.0,12.9,29.85,NW,315,0.0,0.0,80,0.00,,,0.00,WUHU21623XXSP,2013-12-15 21:37:00,
2013-12-15 16:42:00,18.0,12.9,29.87,ENE,67,0.0,0.0,80,0.00,,,0.00,WUHU21623XXSP,2013-12-15 21:42:00,
2013-12-15 16:47:00,18.0,12.9,29.86,NW,315,0.0,0.0,80,0.00,,,0.00,WUHU21623XXSP,2013-12-15 21:47:00,
2013-12-15 16:52:00,17.8,12.7,29.87,WSW,247,0.0,0.0,80,0.00,,,0.00,WUHU21623XXSP,2013-12-15 21:52:00,
2013-12-15 16:57:00,17.6,12.5,29.86,NW,315,0.0,0.0,80,0.00,,,0.00,WUHU21623XXSP,2013-12-15 21:57:00,
2013-12-15 17:02:00,17.6,12.5,29.87,South,180,0.0,0.0,80,0.00,,,0.00,WUHU21623XXSP,2013-12-15 22:02:00,
2013-12-15 17:07:00,17.6,12.2,29.87,WNW,292,0.0,0.0,79,0.00,,,0.00,WUHU21623XXSP,2013-12-15 22:07:00,
2013-12-15 17:12:00,17.6,12.2,29.87,WNW,292,0.0,0.0,79,0.00,,,0.00,WUHU21623XXSP,2013-12-15 22:12:00,
2013-12-15 17:17:00,17.6,12.2,29.87,ENE,67,0.0,0.0,79,0.00,,,0.00,WUHU21623XXSP,2013-12-15 22:17:00,
2013-12-15 17:22:00,17.6,11.9,29.87,NW,315,0.0,0.0,78,0.00,,,0.00,WUHU21623XXSP,2013-12-15 22:22:00,
2013-12-15 17:27:00,17.6,12.2,29.87,NNW,337,0.0,0.0,79,0.00,,,0.00,WUHU21623XXSP,2013-12-15 22:27:00,
2013-12-15 17:32:00,17.5,12.1,29.88,NNW,337,0.0,0.0,79,0.00,,,0.00,WUHU21623XXSP,2013-12-15 22:32:00,
2013-12-15 17:37:00,17.5,12.4,29.89,NW,315,0.0,0.0,80,0.00,,,0.00,WUHU21623XXSP,2013-12-15 22:37:00,
2013-12-15 17:42:00,17.3,12.2,29.89,NNE,22,0.0,0.0,80,0.00,,,0.00,WUHU21623XXSP,2013-12-15 22:42:00,
2013-12-15 17:47:00,17.3,12.5,29.89,NNE,22,0.0,0.0,81,0.00,,,0.00,WUHU21623XXSP,2013-12-15 22:47:00,
2013-12-15 17:52:00,17.3,12.5,29.89,NNW,337,0.0,0.0,81,0.00,,,0.00,WUHU21623XXSP,2013-12-15 22:52:00,
2013-12-15 17:57:00,16.9,12.3,29.90,NNE,22,0.0,0.0,82,0.00,,,0.00,WUHU21623XXSP,2013-12-15 22:57:00,
2013-12-15 18:02:00,16.9,12.3,29.90,NW,315,0.0,0.0,82,0.00,,,0.00,WUHU21623XXSP,2013-12-15 23:02:00,
2013-12-15 18:07:00,16.7,12.1,29.90,NW,315,0.0,0.0,82,0.00,,,0.00,WUHU21623XXSP,2013-12-15 23:07:00,
2013-12-15 18:12:00,16.7,12.1,29.90,West,270,0.0,0.0,82,0.00,,,0.00,WUHU21623XXSP,2013-12-15 23:12:00,
2013-12-15 18:17:00,16.7,12.1,29.91,NNW,337,0.0,0.0,82,0.00,,,0.00,WUHU21623XXSP,2013-12-15 23:17:00,
2013-12-15 18:22:00,16.6,12.0,29.91,North,0,0.0,0.0,82,0.00,,,0.00,WUHU21623XXSP,2013-12-15 23:22:00,
2013-12-15 18:27:00,16.4,11.9,29.92,WNW,292,0.0,0.0,82,0.00,,,0.00,WUHU21623XXSP,2013-12-15 23:27:00,
2013-12-15 18:32:00,16.4,11.6,29.92,NNW,337,0.0,0.0,81,0.00,,,0.00,WUHU21623XXSP,2013-12-15 23:32:00,
2013-12-15 18:37:00,16.2,11.4,29.92,North,0,0.0,0.0,81,0.00,,,0.00,WUHU21623XXSP,2013-12-15 23:37:00,
2013-12-15 18:42:00,16.2,11.4,29.92,WNW,292,0.0,0.0,81,0.00,,,0.00,WUHU21623XXSP,2013-12-15 23:42:00,
2013-12-15 18:47:00,16.0,11.2,29.92,WNW,292,0.0,0.0,81,0.00,,,0.00,WUHU21623XXSP,2013-12-15 23:47:00,
2013-12-15 18:52:00,15.8,10.7,29.92,WNW,292,0.0,0.0,80,0.00,,,0.00,WUHU21623XXSP,2013-12-15 23:52:00,
2013-12-15 18:57:00,15.8,10.7,29.92,WNW,292,0.0,0.0,80,0.00,,,0.00,WUHU21623XXSP,2013-12-15 23:57:00,
2013-12-15 19:02:00,15.7,10.6,29.93,NNW,337,0.0,0.0,80,0.00,,,0.00,WUHU21623XXSP,2013-12-16 00:02:00,
2013-12-15 19:07:00,15.5,10.2,29.93,North,0,0.0,0.0,79,0.00,,,0.00,WUHU21623XXSP,2013-12-16 00:07:00,
2013-12-15 19:12:00,15.5,10.2,29.94,North,0,0.0,0.0,79,0.00,,,0.00,WUHU21623XXSP,2013-12-16 00:12:00,
2013-12-15 19:17:00,15.5,10.2,29.95,NNE,22,0.0,0.0,79,0.00,,,0.00,WUHU21623XXSP,2013-12-16 00:17:00,
2013-12-15 19:22:00,15.5,10.2,29.94,NNW,337,0.0,0.0,79,0.00,,,0.00,WUHU21623XXSP,2013-12-16 00:22:00,
2013-12-15 19:27:00,15.5,10.2,29.94,NW,315,0.0,0.0,79,0.00,,,0.00,WUHU21623XXSP,2013-12-16 00:27:00,
2013-12-15 19:32:00,15.5,10.2,29.94,WNW,292,0.0,0.0,79,0.00,,,0.00,WUHU21623XXSP,2013-12-16 00:32:00,
2013-12-15 19:37:00,15.5,10.2,29.95,NNW,337,0.0,0.0,79,0.00,,,0.00,WUHU21623XXSP,2013-12-16 00:37:00,
2013-12-15 19:42:00,15.5,10.2,29.95,NNE,22,0.0,0.0,79,0.00,,,0.00,WUHU21623XXSP,2013-12-16 00:42:00,
2013-12-15 19:47:00,15.5,10.2,29.95,NW,315,0.0,0.0,79,0.00,,,0.00,WUHU21623XXSP,2013-12-16 00:47:00,
2013-12-15 19:52:00,15.5,10.2,29.95,North,0,0.0,0.0,79,0.00,,,0.00,WUHU21623XXSP,2013-12-16 00:52:00,
2013-12-15 19:57:00,15.5,10.2,29.95,NNW,337,0.0,0.0,79,0.00,,,0.00,WUHU21623XXSP,2013-12-16 00:57:00,
2013-12-15 20:02:00,15.5,10.2,29.95,NW,315,0.0,0.0,79,0.00,,,0.00,WUHU21623XXSP,2013-12-16 01:02:00,
2013-12-15 20:07:00,15.5,10.2,29.96,NNW,337,0.0,0.0,79,0.00,,,0.00,WUHU21623XXSP,2013-12-16 01:07:00,
2013-12-15 20:12:00,15.5,10.2,29.95,WNW,292,0.0,0.0,79,0.00,,,0.00,WUHU21623XXSP,2013-12-16 01:12:00,
2013-12-15 20:17:00,15.5,10.2,29.96,NW,315,0.0,0.0,79,0.00,,,0.00,WUHU21623XXSP,2013-12-16 01:17:00,
2013-12-15 20:22:00,15.5,10.2,29.97,WNW,292,0.0,0.0,79,0.00,,,0.00,WUHU21623XXSP,2013-12-16 01:22:00,
2013-12-15 20:27:00,15.5,10.2,29.96,NNW,337,0.0,0.0,79,0.00,,,0.00,WUHU21623XXSP,2013-12-16 01:27:00,
2013-12-15 20:32:00,15.5,10.2,29.97,NW,315,0.0,0.0,79,0.00,,,0.00,WUHU21623XXSP,2013-12-16 01:32:00,
2013-12-15 20:37:00,15.5,10.2,29.97,West,270,0.0,0.0,79,0.00,,,0.00,WUHU21623XXSP,2013-12-16 01:37:00,
2013-12-15 20:42:00,15.5,10.2,29.97,WNW,292,0.0,0.0,79,0.00,,,0.00,WUHU21623XXSP,2013-12-16 01:42:00,
2013-12-15 20:47:00,15.5,10.4,29.97,WNW,292,0.0,0.0,80,0.00,,,0.00,WUHU21623XXSP,2013-12-16 01:47:00,
2013-12-15 20:52:00,15.5,10.4,29.97,West,270,0.0,0.0,80,0.00,,,0.00,WUHU21623XXSP,2013-12-16 01:52:00,
2013-12-15 20:57:00,15.5,10.4,29.97,WNW,292,0.0,0.0,80,0.00,,,0.00,WUHU21623XXSP,2013-12-16 01:57:00,
2013-12-15 21:02:00,15.3,10.2,29.97,NW,315,0.0,0.0,80,0.00,,,0.00,WUHU21623XXSP,2013-12-16 02:02:00,
2013-12-15 21:07:00,15.3,10.2,29.97,WNW,292,0.0,0.0,80,0.00,,,0.00,WUHU21623XXSP,2013-12-16 02:07:00,
2013-12-15 21:12:00,15.3,10.5,29.98,WNW,292,0.0,0.0,81,0.00,,,0.00,WUHU21623XXSP,2013-12-16 02:12:00,
2013-12-15 21:17:00,15.1,10.3,29.98,WNW,292,0.0,0.0,81,0.00,,,0.00,WUHU21623XXSP,2013-12-16 02:17:00,
2013-12-15 21:22:00,15.1,10.3,29.98,WNW,292,0.0,0.0,81,0.00,,,0.00,WUHU21623XXSP,2013-12-16 02:22:00,
2013-12-15 21:27:00,15.1,10.3,29.98,North,0,0.0,0.0,81,0.00,,,0.00,WUHU21623XXSP,2013-12-16 02:27:00,
2013-12-15 21:32:00,15.1,10.3,29.98,NW,315,0.0,0.0,81,0.00,,,0.00,WUHU21623XXSP,2013-12-16 02:32:00,
2013-12-15 21:37:00,15.1,10.3,29.98,West,270,0.0,0.0,81,0.00,,,0.00,WUHU21623XXSP,2013-12-16 02:37:00,
2013-12-15 21:42:00,15.1,10.3,29.98,NW,315,0.0,0.0,81,0.00,,,0.00,WUHU21623XXSP,2013-12-16 02:42:00,
2013-12-15 21:47:00,15.3,10.5,29.99,NW,315,0.0,0.0,81,0.00,,,0.00,WUHU21623XXSP,2013-12-16 02:47:00,
2013-12-15 21:52:00,15.3,10.5,29.98,NNW,337,0.0,0.0,81,0.00,,,0.00,WUHU21623XXSP,2013-12-16 02:52:00,
2013-12-15 21:57:00,15.3,10.5,29.98,NNW,337,0.0,0.0,81,0.00,,,0.00,WUHU21623XXSP,2013-12-16 02:57:00,
2013-12-15 22:02:00,15.3,10.5,29.99,WNW,292,0.0,0.0,81,0.00,,,0.00,WUHU21623XXSP,2013-12-16 03:02:00,
2013-12-15 22:08:00,15.3,10.5,29.99,WNW,292,0.0,0.0,81,0.00,,,0.00,WUHU21623XXSP,2013-12-16 03:08:00,
2013-12-15 22:13:00,15.1,10.3,29.99,WNW,292,0.0,0.0,81,0.00,,,0.00,WUHU21623XXSP,2013-12-16 03:13:00,
2013-12-15 22:18:00,15.1,10.3,29.99,West,270,0.0,0.0,81,0.00,,,0.00,WUHU21623XXSP,2013-12-16 03:18:00,
2013-12-15 22:23:00,15.1,10.3,30.00,NNW,337,0.0,0.0,81,0.00,,,0.00,WUHU21623XXSP,2013-12-16 03:23:00,
2013-12-15 22:28:00,15.1,10.3,30.00,WNW,292,0.0,0.0,81,0.00,,,0.00,WUHU21623XXSP,2013-12-16 03:28:00,
2013-12-15 22:33:00,15.1,10.3,30.00,North,0,0.0,0.0,81,0.00,,,0.00,WUHU21623XXSP,2013-12-16 03:33:00,
2013-12-15 22:38:00,15.1,10.3,30.00,WNW,292,0.0,0.0,81,0.00,,,0.00,WUHU21623XXSP,2013-12-16 03:38:00,
2013-12-15 22:39:00,15.1,10.3,30.00,WNW,292,0.0,0.0,81,0.00,,,0.00,WUHU21623XXSP,2013-12-16 03:39:00,
2013-12-15 22:44:00,15.1,10.3,30.00,WNW,292,0.0,0.0,81,0.00,,,0.00,WUHU21623XXSP,2013-12-16 03:44:00,
2013-12-15 22:49:00,15.1,10.3,30.00,NNW,337,0.0,0.0,81,0.00,,,0.00,WUHU21623XXSP,2013-12-16 03:49:00,
2013-12-15 22:54:00,15.3,10.5,30.00,NNW,337,0.0,0.0,81,0.00,,,0.00,WUHU21623XXSP,2013-12-16 03:54:00,
2013-12-15 22:59:00,15.1,10.3,30.01,North,0,0.0,0.0,81,0.00,,,0.00,WUHU21623XXSP,2013-12-16 03:59:00,
2013-12-15 23:04:00,15.1,10.6,30.00,North,0,0.0,0.0,82,0.00,,,0.00,WUHU21623XXSP,2013-12-16 04:04:00,
2013-12-15 23:09:00,15.1,10.6,30.00,NNW,337,0.0,0.0,82,0.00,,,0.00,WUHU21623XXSP,2013-12-16 04:09:00,
2013-12-15 23:14:00,15.1,10.6,30.00,NNW,337,0.0,0.0,82,0.00,,,0.00,WUHU21623XXSP,2013-12-16 04:14:00,
2013-12-15 23:19:00,15.3,11.0,30.00,NNW,337,0.0,0.0,83,0.00,,,0.00,WUHU21623XXSP,2013-12-16 04:19:00,
2013-12-15 23:24:00,15.3,11.0,30.01,NNW,337,0.0,0.0,83,0.00,,,0.00,WUHU21623XXSP,2013-12-16 04:24:00,
2013-12-15 23:29:00,15.3,11.0,30.00,NNW,337,0.0,0.0,83,0.00,,,0.00,WUHU21623XXSP,2013-12-16 04:29:00,
2013-12-15 23:34:00,15.1,10.8,30.00,West,270,0.0,0.0,83,0.00,,,0.00,WUHU21623XXSP,2013-12-16 04:34:00,
2013-12-15 23:39:00,14.9,10.7,30.00,WNW,292,0.0,0.0,83,0.00,,,0.00,WUHU21623XXSP,2013-12-16 04:39:00,
2013-12-15 23:44:00,14.8,10.6,30.01,NW,315,0.0,0.0,83,0.00,,,0.00,WUHU21623XXSP,2013-12-16 04:44:00,
2013-12-15 23:49:00,14.6,10.4,30.01,WNW,292,0.0,0.0,83,0.00,,,0.00,WUHU21623XXSP,2013-12-16 04:49:00,
2013-12-15 23:54:00,14.4,9.9,30.01,NW,315,0.0,0.0,82,0.00,,,0.00,WUHU21623XXSP,2013-12-16 04:54:00,
2013-12-15 23:59:00,14.4,9.9,30.02,WNW,292,0.0,0.0,82,0.00,,,0.00,WUHU21623XXSP,2013-12-16 04:59:00,